x

La Mancha Beach, Mexico (lmbv4) Weather Station

1:00pm - Thu 21st Sep 2017 All times are CDT. -5 hours from GMT.

  • Wind
    6mph, 7mph gusts
  • Air Temp 87°f
  • Sea Pressure 1011.5mb
  • La Mancha Beach, Mexico
  • La Mancha Beach, Mexico

More Historic Weather Station data

Upgrade to MSW Pro to gain access to the past 30 days of data for over 8000 Wavebouys and Weather Stations around the globe.

Join

Comparision Forecast

View Surf forecast
   
Thu 09/21 1:00pm 6 7 mph 1011.5mb 87f
12:00pm 8 9 mph 1011.9mb 87f
11:00am 6 8 mph 1011.9mb 88f
10:00am 2 3 mph 1012mb 90f
9:00am 2 2 mph 1011.9mb -
8:00am 3 3 mph 1012.1mb 78f
7:00am 5 5 mph 1011.3mb 77f
6:00am 3 5 mph 1010.6mb 77f
5:00am 3 5 mph 1010.4mb 77f
4:00am 2 3 mph 1010.8mb 78f
3:00am 3 3 mph 1011.4mb 79f
2:00am 2 2 mph 1012.3mb 79f
1:00am 3 3 mph 1012.3mb 80f
12:00am 2 3 mph 1012.6mb 80f
Wed 09/20 11:00pm 5 5 mph 1012.6mb 84f
10:00pm  -  1 mph 1012mb 81f
9:00pm 3 5 mph 1011.3mb 83f
8:00pm 5 6 mph 1010.5mb 84f
7:00pm 7 7 mph 1010.1mb 84f
6:00pm 8 8 mph 1009.6mb 88f
5:00pm 6 7 mph 1009.8mb 87f
4:00pm 6 7 mph 1009.7mb 87f
3:00pm 5 6 mph 1010.3mb 87f
2:00pm 8 9 mph 1011.2mb 87f
1:00pm 9 10 mph 1011.8mb 86f
12:00pm 7 8 mph 1012.4mb 87f
11:00am 1 3 mph 1012.5mb 90f
10:00am 3 5 mph 1012.7mb 89f
9:00am 2 3 mph 1012mb 85f
8:00am 5 5 mph 1011.5mb 78f
7:00am 2 2 mph 1011.6mb 75f
6:00am 5 5 mph 1012.1mb 76f
5:00am 3 3 mph 1011.3mb 75f
4:00am 2 3 mph 1011.3mb 76f
3:00am 3 3 mph 1011.5mb 77f
2:00am 3 5 mph 1012.2mb 78f
1:00am 3 3 mph 1012.7mb 77f
12:00am 3 5 mph 1013.1mb 78f
Tue 09/19 11:00pm 2 3 mph 1012.8mb 78f
10:00pm 3 3 mph 1012mb 79f
9:00pm 3 5 mph 1011.2mb 79f
8:00pm 1 2 mph 1010.4mb 82f
7:00pm 3 5 mph 1010.1mb 85f
6:00pm 5 6 mph 1009.8mb 88f
5:00pm 5 6 mph 1009.7mb 87f
4:00pm 7 9 mph 1010mb 87f
3:00pm 8 9 mph 1010.9mb 86f
2:00pm 8 9 mph 1012mb 87f
1:00pm 7 8 mph 1012.8mb 87f
12:00pm 7 8 mph 1013.4mb 87f
11:00am 1 2 mph 1013.9mb 88f
10:00am 1 2 mph 1014.3mb 85f
9:00am 2 3 mph 1013.7mb 79f
8:00am 2 3 mph 1013.3mb 76f
7:00am 6 6 mph 1012.6mb 75f
6:00am 3 3 mph 1012.1mb 75f
5:00am 2 3 mph 1011.9mb 77f
4:00am 3 5 mph 1012.3mb 77f
3:00am 3 5 mph 1012.7mb 78f
2:00am 2 3 mph 1013.6mb 78f
1:00am 3 5 mph 1013.9mb 78f
12:00am 3 3 mph 1014.3mb 78f
Mon 09/18 11:00pm 2 2 mph 1013.5mb 78f
10:00pm  -  2 mph 1012.4mb 78f
9:00pm 3 3 mph 1011.3mb 79f
8:00pm 5 5 mph 1010.9mb 82f
7:00pm 3 5 mph 1010.9mb 83f
6:00pm 6 8 mph 1011.3mb 87f
5:00pm 6 8 mph 1011.6mb 87f
4:00pm 8 10 mph 1011.8mb 85f
3:00pm 9 13 mph 1012.6mb 86f
2:00pm 9 13 mph 1012.9mb 86f
1:00pm 9 10 mph 1014.1mb 86f
12:00pm 3 6 mph 1014.8mb 89f
11:00am 3 5 mph 1014.8mb 84f
10:00am 3 5 mph 1014.7mb 82f
9:00am 5 7 mph 1014.7mb 79f
8:00am 17 21 mph 1014.4mb 79f
7:00am 2 2 mph 1013.3mb 78f
6:00am 5 6 mph 1012mb 77f
5:00am 5 5 mph 1012.4mb 76f
4:00am 2 3 mph 1012.4mb 76f
3:00am 2 2 mph 1013mb 76f
2:00am 5 6 mph 1013.3mb 77f
1:00am 1 3 mph 1013.7mb 77f
12:00am 2 3 mph 1014mb 77f
Sun 09/17 11:00pm 5 6 mph 1014.2mb 78f
10:00pm 3 6 mph 1013.8mb 77f
9:00pm 3 5 mph 1012.8mb 81f
8:00pm 3 5 mph 1012.2mb 83f